sensor_id;sensor_type;location;lat;lon;timestamp;pressure;altitude;pressure_sealevel;temperature;humidity
51687;BME280;37774;52.192;4.584;2023-04-07T00:00:37;101718.13;;;6.93;100.00
51687;BME280;37774;52.192;4.584;2023-04-07T00:03:22;101671.38;;;6.84;100.00
51687;BME280;37774;52.192;4.584;2023-04-07T00:06:08;101703.47;;;6.94;100.00
51687;BME280;37774;52.192;4.584;2023-04-07T00:08:54;101579.16;;;6.00;100.00
51687;BME280;37774;52.192;4.584;2023-04-07T00:11:40;101503.88;;;5.43;100.00
51687;BME280;37774;52.192;4.584;2023-04-07T00:14:25;101718.59;;;6.77;100.00
51687;BME280;37774;52.192;4.584;2023-04-07T00:17:11;101679.38;;;6.55;100.00
51687;BME280;37774;52.192;4.584;2023-04-07T00:19:56;101782.28;;;7.13;100.00
51687;BME280;37774;52.192;4.584;2023-04-07T00:22:41;101737.59;;;6.79;100.00
51687;BME280;37774;52.192;4.584;2023-04-07T00:25:29;101515.06;;;5.44;100.00
51687;BME280;37774;52.192;4.584;2023-04-07T00:28:14;101578.38;;;5.67;100.00
51687;BME280;37774;52.192;4.584;2023-04-07T00:31:00;101764.41;;;6.84;100.00
51687;BME280;37774;52.192;4.584;2023-04-07T00:33:45;101772.91;;;6.80;100.00
51687;BME280;37774;52.192;4.584;2023-04-07T00:36:32;101709.94;;;6.36;100.00
51687;BME280;37774;52.192;4.584;2023-04-07T00:39:18;101795.19;;;6.75;100.00
51687;BME280;37774;52.192;4.584;2023-04-07T00:42:04;101845.66;;;6.95;100.00
51687;BME280;37774;52.192;4.584;2023-04-07T00:44:50;101836.38;;;7.04;100.00
51687;BME280;37774;52.192;4.584;2023-04-07T00:47:35;101758.31;;;6.43;100.00
51687;BME280;37774;52.192;4.584;2023-04-07T00:50:21;101827.31;;;6.84;100.00
51687;BME280;37774;52.192;4.584;2023-04-07T00:53:06;101846.50;;;6.94;100.00
51687;BME280;37774;52.192;4.584;2023-04-07T00:55:52;101764.47;;;6.49;100.00
51687;BME280;37774;52.192;4.584;2023-04-07T00:58:39;101852.50;;;6.93;100.00
51687;BME280;37774;52.192;4.584;2023-04-07T01:01:28;101796.56;;;6.60;100.00
51687;BME280;37774;52.192;4.584;2023-04-07T01:04:21;101613.13;;;5.47;100.00
51687;BME280;37774;52.192;4.584;2023-04-07T01:07:15;101882.00;;;7.03;100.00
51687;BME280;37774;52.192;4.584;2023-04-07T01:10:04;101759.75;;;6.32;100.00
51687;BME280;37774;52.192;4.584;2023-04-07T01:12:54;101890.56;;;7.00;100.00
51687;BME280;37774;52.192;4.584;2023-04-07T01:15:46;101834.56;;;6.64;100.00
51687;BME280;37774;52.192;4.584;2023-04-07T01:18:35;101893.31;;;7.07;100.00
51687;BME280;37774;52.192;4.584;2023-04-07T01:21:25;101902.59;;;6.98;100.00
51687;BME280;37774;52.192;4.584;2023-04-07T01:24:43;101806.44;;;6.40;100.00
51687;BME280;37774;52.192;4.584;2023-04-07T01:27:35;101638.91;;;5.48;100.00
51687;BME280;37774;52.192;4.584;2023-04-07T01:30:26;101874.84;;;6.91;100.00
51687;BME280;37774;52.192;4.584;2023-04-07T01:33:13;101906.16;;;7.04;100.00
51687;BME280;37774;52.192;4.584;2023-04-07T01:36:00;101815.41;;;6.56;100.00
51687;BME280;37774;52.192;4.584;2023-04-07T01:38:48;101890.78;;;7.10;100.00
51687;BME280;37774;52.192;4.584;2023-04-07T01:41:36;101846.84;;;6.75;100.00
51687;BME280;37774;52.192;4.584;2023-04-07T01:44:23;101878.50;;;7.01;100.00
51687;BME280;37774;52.192;4.584;2023-04-07T01:47:12;101868.16;;;6.99;100.00
51687;BME280;37774;52.192;4.584;2023-04-07T01:50:00;101805.16;;;6.59;100.00
51687;BME280;37774;52.192;4.584;2023-04-07T01:52:48;101903.03;;;7.17;100.00
51687;BME280;37774;52.192;4.584;2023-04-07T01:55:34;101908.28;;;7.22;100.00
51687;BME280;37774;52.192;4.584;2023-04-07T01:58:19;101863.56;;;6.89;100.00
51687;BME280;37774;52.192;4.584;2023-04-07T02:01:05;101851.31;;;6.80;100.00
51687;BME280;37774;52.192;4.584;2023-04-07T02:03:54;101616.66;;;5.18;100.00
51687;BME280;37774;52.192;4.584;2023-04-07T02:06:43;101919.28;;;7.13;100.00
51687;BME280;37774;52.192;4.584;2023-04-07T02:09:31;101808.00;;;6.35;100.00
51687;BME280;37774;52.192;4.584;2023-04-07T02:12:18;101936.56;;;7.14;100.00
51687;BME280;37774;52.192;4.584;2023-04-07T02:15:05;101969.09;;;7.06;100.00
51687;BME280;37774;52.192;4.584;2023-04-07T02:17:53;101939.97;;;7.13;100.00
51687;BME280;37774;52.192;4.584;2023-04-07T02:20:42;101929.28;;;6.99;100.00
51687;BME280;37774;52.192;4.584;2023-04-07T02:23:29;101955.50;;;7.13;100.00
51687;BME280;37774;52.192;4.584;2023-04-07T02:26:14;101889.25;;;6.83;100.00
51687;BME280;37774;52.192;4.584;2023-04-07T02:28:59;101772.97;;;6.09;100.00
51687;BME280;37774;52.192;4.584;2023-04-07T02:31:45;101764.16;;;6.03;100.00
51687;BME280;37774;52.192;4.584;2023-04-07T02:34:30;101819.16;;;6.34;100.00
51687;BME280;37774;52.192;4.584;2023-04-07T02:37:17;101966.88;;;7.21;100.00
51687;BME280;37774;52.192;4.584;2023-04-07T02:40:03;101880.44;;;6.75;100.00
51687;BME280;37774;52.192;4.584;2023-04-07T02:42:49;101781.38;;;6.02;100.00
51687;BME280;37774;52.192;4.584;2023-04-07T02:45:34;101965.94;;;7.18;100.00
51687;BME280;37774;52.192;4.584;2023-04-07T02:48:19;101979.75;;;7.18;100.00
51687;BME280;37774;52.192;4.584;2023-04-07T02:51:05;101967.69;;;7.19;100.00
51687;BME280;37774;52.192;4.584;2023-04-07T02:53:52;101962.97;;;7.02;100.00
51687;BME280;37774;52.192;4.584;2023-04-07T02:56:37;101872.38;;;6.61;100.00
51687;BME280;37774;52.192;4.584;2023-04-07T02:59:23;101886.53;;;6.77;100.00
51687;BME280;37774;52.192;4.584;2023-04-07T03:02:08;101946.63;;;7.03;100.00
51687;BME280;37774;52.192;4.584;2023-04-07T03:04:54;101906.59;;;6.87;100.00
51687;BME280;37774;52.192;4.584;2023-04-07T03:07:39;101903.28;;;6.91;100.00
51687;BME280;37774;52.192;4.584;2023-04-07T03:10:26;101915.44;;;6.95;100.00
51687;BME280;37774;52.192;4.584;2023-04-07T03:13:12;101867.19;;;6.61;100.00
51687;BME280;37774;52.192;4.584;2023-04-07T03:15:58;101955.63;;;7.19;100.00
51687;BME280;37774;52.192;4.584;2023-04-07T03:18:45;101887.41;;;6.77;100.00
51687;BME280;37774;52.192;4.584;2023-04-07T03:21:30;101958.06;;;7.13;100.00
51687;BME280;37774;52.192;4.584;2023-04-07T03:24:16;101915.06;;;6.81;100.00
51687;BME280;37774;52.192;4.584;2023-04-07T03:27:02;101875.88;;;6.64;100.00
51687;BME280;37774;52.192;4.584;2023-04-07T03:29:48;101941.50;;;7.05;100.00
51687;BME280;37774;52.192;4.584;2023-04-07T03:32:34;101824.50;;;6.40;100.00
51687;BME280;37774;52.192;4.584;2023-04-07T03:35:19;101948.56;;;7.12;100.00
51687;BME280;37774;52.192;4.584;2023-04-07T03:38:05;101674.59;;;5.33;100.00
51687;BME280;37774;52.192;4.584;2023-04-07T03:40:50;101912.81;;;6.60;100.00
51687;BME280;37774;52.192;4.584;2023-04-07T03:43:37;101983.78;;;7.07;100.00
51687;BME280;37774;52.192;4.584;2023-04-07T03:46:23;101877.81;;;6.38;100.00
51687;BME280;37774;52.192;4.584;2023-04-07T03:49:09;101942.44;;;6.73;100.00
51687;BME280;37774;52.192;4.584;2023-04-07T03:51:55;101878.53;;;6.34;100.00
51687;BME280;37774;52.192;4.584;2023-04-07T03:54:40;101968.59;;;6.87;100.00
51687;BME280;37774;52.192;4.584;2023-04-07T03:57:26;101990.53;;;7.01;100.00
51687;BME280;37774;52.192;4.584;2023-04-07T04:00:13;102015.81;;;7.13;100.00
51687;BME280;37774;52.192;4.584;2023-04-07T04:02:59;101861.78;;;6.18;100.00
51687;BME280;37774;52.192;4.584;2023-04-07T04:05:44;101946.44;;;6.62;100.00
51687;BME280;37774;52.192;4.584;2023-04-07T04:08:30;102030.38;;;7.10;100.00
51687;BME280;37774;52.192;4.584;2023-04-07T04:11:15;101908.75;;;6.36;100.00
51687;BME280;37774;52.192;4.584;2023-04-07T04:14:01;101936.69;;;6.51;100.00
51687;BME280;37774;52.192;4.584;2023-04-07T04:16:48;101937.44;;;6.47;100.00
51687;BME280;37774;52.192;4.584;2023-04-07T04:19:33;101916.50;;;6.36;100.00
51687;BME280;37774;52.192;4.584;2023-04-07T04:22:19;101950.84;;;6.66;100.00
51687;BME280;37774;52.192;4.584;2023-04-07T04:25:04;101940.19;;;6.53;100.00
51687;BME280;37774;52.192;4.584;2023-04-07T04:27:50;102024.31;;;7.09;100.00
51687;BME280;37774;52.192;4.584;2023-04-07T04:30:35;102029.91;;;6.91;100.00
51687;BME280;37774;52.192;4.584;2023-04-07T04:33:22;102014.56;;;6.99;100.00
51687;BME280;37774;52.192;4.584;2023-04-07T04:36:08;101913.50;;;6.22;100.00
51687;BME280;37774;52.192;4.584;2023-04-07T04:38:53;101935.13;;;6.26;100.00
51687;BME280;37774;52.192;4.584;2023-04-07T04:41:39;102040.63;;;6.75;100.00
51687;BME280;37774;52.192;4.584;2023-04-07T04:44:24;102066.91;;;6.90;100.00
51687;BME280;37774;52.192;4.584;2023-04-07T04:47:10;101959.78;;;6.14;100.00
51687;BME280;37774;52.192;4.584;2023-04-07T04:49:57;102116.00;;;6.90;100.00
51687;BME280;37774;52.192;4.584;2023-04-07T04:52:42;102043.00;;;6.36;100.00
51687;BME280;37774;52.192;4.584;2023-04-07T04:55:27;101973.50;;;5.84;100.00
51687;BME280;37774;52.192;4.584;2023-04-07T04:58:13;102074.34;;;6.49;100.00
51687;BME280;37774;52.192;4.584;2023-04-07T05:00:59;102066.59;;;6.49;100.00
51687;BME280;37774;52.192;4.584;2023-04-07T05:03:44;102151.47;;;6.96;100.00
51687;BME280;37774;52.192;4.584;2023-04-07T05:06:31;102039.97;;;6.21;100.00
51687;BME280;37774;52.192;4.584;2023-04-07T05:09:17;102169.38;;;6.90;100.00
51687;BME280;37774;52.192;4.584;2023-04-07T05:12:02;102162.53;;;6.90;100.00
51687;BME280;37774;52.192;4.584;2023-04-07T05:14:48;102038.59;;;6.03;100.00
51687;BME280;37774;52.192;4.584;2023-04-07T05:17:34;102133.00;;;6.53;100.00
51687;BME280;37774;52.192;4.584;2023-04-07T05:20:19;101967.88;;;5.41;100.00
51687;BME280;37774;52.192;4.584;2023-04-07T05:23:06;102223.66;;;6.90;100.00
51687;BME280;37774;52.192;4.584;2023-04-07T05:25:52;102084.97;;;6.02;100.00
51687;BME280;37774;52.192;4.584;2023-04-07T05:28:37;102183.06;;;6.56;100.00
51687;BME280;37774;52.192;4.584;2023-04-07T05:31:23;102196.25;;;6.66;100.00
51687;BME280;37774;52.192;4.584;2023-04-07T05:34:08;101811.66;;;4.37;100.00
51687;BME280;37774;52.192;4.584;2023-04-07T05:36:54;101999.84;;;5.47;100.00
51687;BME280;37774;52.192;4.584;2023-04-07T05:39:41;102205.19;;;6.48;100.00
51687;BME280;37774;52.192;4.584;2023-04-07T05:42:30;102191.28;;;6.45;100.00
51687;BME280;37774;52.192;4.584;2023-04-07T05:45:16;102277.56;;;7.06;100.00
51687;BME280;37774;52.192;4.584;2023-04-07T05:48:02;102005.66;;;5.41;100.00
51687;BME280;37774;52.192;4.584;2023-04-07T05:50:48;102080.38;;;5.93;100.00
51687;BME280;37774;52.192;4.584;2023-04-07T05:53:34;101862.97;;;4.58;100.00
51687;BME280;37774;52.192;4.584;2023-04-07T05:56:21;102075.69;;;5.81;100.00
51687;BME280;37774;52.192;4.584;2023-04-07T05:59:07;102287.16;;;7.10;100.00
51687;BME280;37774;52.192;4.584;2023-04-07T06:01:54;102224.13;;;6.76;100.00
51687;BME280;37774;52.192;4.584;2023-04-07T06:04:40;102085.03;;;5.77;100.00
51687;BME280;37774;52.192;4.584;2023-04-07T06:07:25;102117.66;;;6.01;100.00
51687;BME280;37774;52.192;4.584;2023-04-07T06:10:10;101986.06;;;5.46;100.00
51687;BME280;37774;52.192;4.584;2023-04-07T06:12:57;101919.50;;;5.07;100.00
51687;BME280;37774;52.192;4.584;2023-04-07T06:15:43;101973.59;;;5.33;100.00
51687;BME280;37774;52.192;4.584;2023-04-07T06:18:30;101842.25;;;4.55;100.00
51687;BME280;37774;52.192;4.584;2023-04-07T06:21:20;102287.88;;;7.05;100.00
51687;BME280;37774;52.192;4.584;2023-04-07T06:24:09;102309.47;;;7.36;100.00
51687;BME280;37774;52.192;4.584;2023-04-07T06:26:55;102033.16;;;5.68;100.00
51687;BME280;37774;52.192;4.584;2023-04-07T06:29:43;102008.53;;;5.50;100.00
51687;BME280;37774;52.192;4.584;2023-04-07T06:32:28;102153.94;;;6.33;100.00
51687;BME280;37774;52.192;4.584;2023-04-07T06:35:14;102225.34;;;6.60;100.00
51687;BME280;37774;52.192;4.584;2023-04-07T06:38:00;102029.31;;;5.55;100.00
51687;BME280;37774;52.192;4.584;2023-04-07T06:40:46;102073.66;;;5.70;100.00
51687;BME280;37774;52.192;4.584;2023-04-07T06:43:31;102248.97;;;6.72;100.00
51687;BME280;37774;52.192;4.584;2023-04-07T06:46:18;102168.22;;;6.22;100.00
51687;BME280;37774;52.192;4.584;2023-04-07T06:49:04;102230.41;;;6.57;100.00
51687;BME280;37774;52.192;4.584;2023-04-07T06:51:51;102098.34;;;5.64;100.00
51687;BME280;37774;52.192;4.584;2023-04-07T06:54:37;102336.19;;;7.07;100.00
51687;BME280;37774;52.192;4.584;2023-04-07T06:57:22;102278.19;;;6.70;100.00
51687;BME280;37774;52.192;4.584;2023-04-07T07:00:10;102309.09;;;6.94;100.00
51687;BME280;37774;52.192;4.584;2023-04-07T07:03:00;101974.16;;;4.96;100.00
51687;BME280;37774;52.192;4.584;2023-04-07T07:05:46;102248.19;;;6.48;100.00
51687;BME280;37774;52.192;4.584;2023-04-07T07:08:31;101873.78;;;4.23;100.00
51687;BME280;37774;52.192;4.584;2023-04-07T07:11:17;102150.78;;;5.89;100.00
51687;BME280;37774;52.192;4.584;2023-04-07T07:14:03;102209.41;;;6.19;100.00
51687;BME280;37774;52.192;4.584;2023-04-07T07:16:50;102182.47;;;5.84;100.00
51687;BME280;37774;52.192;4.584;2023-04-07T07:19:39;102062.63;;;5.23;100.00
51687;BME280;37774;52.192;4.584;2023-04-07T07:22:26;102383.44;;;7.03;100.00
51687;BME280;37774;52.192;4.584;2023-04-07T07:25:11;102204.34;;;5.96;100.00
51687;BME280;37774;52.192;4.584;2023-04-07T07:27:57;102290.94;;;6.38;100.00
51687;BME280;37774;52.192;4.584;2023-04-07T07:30:45;102261.47;;;6.05;100.00
51687;BME280;37774;52.192;4.584;2023-04-07T07:33:30;102302.50;;;6.49;100.00
51687;BME280;37774;52.192;4.584;2023-04-07T07:36:17;102297.25;;;6.46;100.00
51687;BME280;37774;52.192;4.584;2023-04-07T07:39:03;102315.50;;;6.52;100.00
51687;BME280;37774;52.192;4.584;2023-04-07T07:41:49;102293.94;;;6.50;100.00
51687;BME280;37774;52.192;4.584;2023-04-07T07:44:34;102202.28;;;5.85;100.00
51687;BME280;37774;52.192;4.584;2023-04-07T07:47:20;102290.31;;;6.45;100.00
51687;BME280;37774;52.192;4.584;2023-04-07T07:50:06;102076.91;;;5.13;100.00
51687;BME280;37774;52.192;4.584;2023-04-07T07:52:53;102372.19;;;7.01;100.00
51687;BME280;37774;52.192;4.584;2023-04-07T07:55:39;102290.97;;;6.39;100.00
51687;BME280;37774;52.192;4.584;2023-04-07T07:58:25;102452.16;;;7.50;100.00
51687;BME280;37774;52.192;4.584;2023-04-07T08:01:11;102496.38;;;7.86;100.00
51687;BME280;37774;52.192;4.584;2023-04-07T08:04:00;102321.56;;;6.80;100.00
51687;BME280;37774;52.192;4.584;2023-04-07T08:06:48;102430.72;;;7.54;100.00
51687;BME280;37774;52.192;4.584;2023-04-07T08:09:36;102258.91;;;6.60;100.00
51687;BME280;37774;52.192;4.584;2023-04-07T08:12:22;102314.38;;;6.97;100.00
51687;BME280;37774;52.192;4.584;2023-04-07T08:15:08;102459.53;;;7.95;100.00
51687;BME280;37774;52.192;4.584;2023-04-07T08:17:53;102240.09;;;6.64;100.00
51687;BME280;37774;52.192;4.584;2023-04-07T08:20:39;102310.16;;;7.01;100.00
51687;BME280;37774;52.192;4.584;2023-04-07T08:23:24;102354.53;;;7.44;100.00
51687;BME280;37774;52.192;4.584;2023-04-07T08:26:11;102359.16;;;7.25;100.00
51687;BME280;37774;52.192;4.584;2023-04-07T08:28:56;102325.44;;;7.22;100.00
51687;BME280;37774;52.192;4.584;2023-04-07T08:31:42;102337.31;;;7.15;100.00
51687;BME280;37774;52.192;4.584;2023-04-07T08:34:28;102225.50;;;6.37;100.00
51687;BME280;37774;52.192;4.584;2023-04-07T08:37:13;102125.84;;;5.89;100.00
51687;BME280;37774;52.192;4.584;2023-04-07T08:39:59;102145.31;;;6.05;100.00
51687;BME280;37774;52.192;4.584;2023-04-07T08:42:47;102366.84;;;7.24;100.00
51687;BME280;37774;52.192;4.584;2023-04-07T08:45:33;102421.66;;;7.68;100.00
51687;BME280;37774;52.192;4.584;2023-04-07T08:48:24;102372.56;;;7.41;100.00
51687;BME280;37774;52.192;4.584;2023-04-07T08:51:13;102257.72;;;6.76;100.00
51687;BME280;37774;52.192;4.584;2023-04-07T08:54:04;102427.13;;;7.79;100.00
51687;BME280;37774;52.192;4.584;2023-04-07T08:56:51;102131.69;;;6.09;100.00
51687;BME280;37774;52.192;4.584;2023-04-07T08:59:40;102238.91;;;6.53;100.00
51687;BME280;37774;52.192;4.584;2023-04-07T09:02:28;102421.88;;;7.76;100.00
51687;BME280;37774;52.192;4.584;2023-04-07T09:05:15;102516.63;;;8.29;100.00
51687;BME280;37774;52.192;4.584;2023-04-07T09:08:01;102277.16;;;6.92;100.00
51687;BME280;37774;52.192;4.584;2023-04-07T09:10:47;102334.13;;;7.24;100.00
51687;BME280;37774;52.192;4.584;2023-04-07T09:13:32;102320.97;;;7.45;100.00
51687;BME280;37774;52.192;4.584;2023-04-07T09:16:19;102270.19;;;6.90;100.00
51687;BME280;37774;52.192;4.584;2023-04-07T09:19:07;102401.59;;;7.92;100.00
51687;BME280;37774;52.192;4.584;2023-04-07T09:21:52;102486.66;;;8.39;100.00
51687;BME280;37774;52.192;4.584;2023-04-07T09:24:43;102381.53;;;7.83;100.00
51687;BME280;37774;52.192;4.584;2023-04-07T09:27:29;102453.28;;;8.17;100.00
51687;BME280;37774;52.192;4.584;2023-04-07T09:30:14;102274.75;;;7.27;100.00
51687;BME280;37774;52.192;4.584;2023-04-07T09:33:04;102266.03;;;6.95;100.00
51687;BME280;37774;52.192;4.584;2023-04-07T09:35:50;102326.81;;;7.40;100.00
51687;BME280;37774;52.192;4.584;2023-04-07T09:38:40;102388.81;;;7.96;100.00
51687;BME280;37774;52.192;4.584;2023-04-07T09:41:26;102117.06;;;6.37;100.00
51687;BME280;37774;52.192;4.584;2023-04-07T09:44:12;102524.28;;;8.87;100.00
51687;BME280;37774;52.192;4.584;2023-04-07T09:46:58;102132.16;;;6.54;100.00
51687;BME280;37774;52.192;4.584;2023-04-07T09:49:51;102309.66;;;7.72;100.00
51687;BME280;37774;52.192;4.584;2023-04-07T09:52:51;102218.47;;;7.19;100.00
51687;BME280;37774;52.192;4.584;2023-04-07T09:55:38;102406.16;;;8.31;100.00
51687;BME280;37774;52.192;4.584;2023-04-07T09:58:24;102534.25;;;9.05;100.00
51687;BME280;37774;52.192;4.584;2023-04-07T10:01:10;102458.22;;;8.71;100.00
51687;BME280;37774;52.192;4.584;2023-04-07T10:03:56;102502.78;;;8.91;100.00
51687;BME280;37774;52.192;4.584;2023-04-07T10:06:44;102167.88;;;6.96;100.00
51687;BME280;37774;52.192;4.584;2023-04-07T10:09:31;102359.22;;;8.18;100.00
51687;BME280;37774;52.192;4.584;2023-04-07T10:12:17;102523.44;;;9.21;100.00
51687;BME280;37774;52.192;4.584;2023-04-07T10:15:03;102356.63;;;8.18;100.00
51687;BME280;37774;52.192;4.584;2023-04-07T10:17:50;102164.97;;;6.85;100.00
51687;BME280;37774;52.192;4.584;2023-04-07T10:20:40;102307.09;;;7.74;100.00
51687;BME280;37774;52.192;4.584;2023-04-07T10:23:33;102401.81;;;8.30;100.00
51687;BME280;37774;52.192;4.584;2023-04-07T10:26:23;102339.13;;;8.10;100.00
51687;BME280;37774;52.192;4.584;2023-04-07T10:29:11;102341.25;;;7.93;100.00
51687;BME280;37774;52.192;4.584;2023-04-07T10:31:59;102485.97;;;8.76;100.00
51687;BME280;37774;52.192;4.584;2023-04-07T10:34:57;102216.88;;;6.93;100.00
51687;BME280;37774;52.192;4.584;2023-04-07T10:38:11;102558.16;;;8.93;100.00
51687;BME280;37774;52.192;4.584;2023-04-07T10:41:31;102444.34;;;8.08;100.00
51687;BME280;37774;52.192;4.584;2023-04-07T10:44:46;102552.59;;;8.79;100.00
51687;BME280;37774;52.192;4.584;2023-04-07T10:47:34;102405.25;;;7.98;100.00
51687;BME280;37774;52.192;4.584;2023-04-07T10:50:21;102538.56;;;8.71;100.00
51687;BME280;37774;52.192;4.584;2023-04-07T10:53:07;102567.56;;;8.89;100.00
51687;BME280;37774;52.192;4.584;2023-04-07T10:55:54;102485.75;;;8.67;100.00
51687;BME280;37774;52.192;4.584;2023-04-07T10:58:41;102500.69;;;8.76;100.00
51687;BME280;37774;52.192;4.584;2023-04-07T11:01:26;102451.38;;;8.42;100.00
51687;BME280;37774;52.192;4.584;2023-04-07T11:04:12;102508.31;;;8.71;100.00
51687;BME280;37774;52.192;4.584;2023-04-07T11:06:57;102422.41;;;8.25;100.00
51687;BME280;37774;52.192;4.584;2023-04-07T11:09:43;102489.09;;;8.63;100.00
51687;BME280;37774;52.192;4.584;2023-04-07T11:12:30;102565.59;;;9.13;100.00
51687;BME280;37774;52.192;4.584;2023-04-07T11:15:18;102496.06;;;8.35;100.00
51687;BME280;37774;52.192;4.584;2023-04-07T11:18:15;102576.19;;;8.88;100.00
51687;BME280;37774;52.192;4.584;2023-04-07T11:21:02;102497.22;;;8.14;100.00
51687;BME280;37774;52.192;4.584;2023-04-07T11:23:52;102517.06;;;8.44;100.00
51687;BME280;37774;52.192;4.584;2023-04-07T11:26:39;102449.09;;;8.23;100.00
51687;BME280;37774;52.192;4.584;2023-04-07T11:29:27;102572.66;;;8.86;100.00
51687;BME280;37774;52.192;4.584;2023-04-07T11:32:14;102573.38;;;9.13;100.00
51687;BME280;37774;52.192;4.584;2023-04-07T11:34:59;102553.53;;;8.83;100.00
51687;BME280;37774;52.192;4.584;2023-04-07T11:37:45;102413.63;;;8.20;100.00
51687;BME280;37774;52.192;4.584;2023-04-07T11:40:32;102378.97;;;7.84;100.00
51687;BME280;37774;52.192;4.584;2023-04-07T11:43:21;102378.22;;;7.88;100.00
51687;BME280;37774;52.192;4.584;2023-04-07T11:46:08;102390.78;;;8.05;100.00
51687;BME280;37774;52.192;4.584;2023-04-07T11:49:07;102477.88;;;8.62;100.00
51687;BME280;37774;52.192;4.584;2023-04-07T11:51:57;102532.56;;;9.05;100.00
51687;BME280;37774;52.192;4.584;2023-04-07T11:54:45;102553.41;;;9.45;100.00
51687;BME280;37774;52.192;4.584;2023-04-07T11:57:31;102538.59;;;9.40;100.00
51687;BME280;37774;52.192;4.584;2023-04-07T12:00:20;102087.09;;;6.73;100.00
51687;BME280;37774;52.192;4.584;2023-04-07T12:03:09;102452.34;;;8.78;100.00
51687;BME280;37774;52.192;4.584;2023-04-07T12:05:58;102555.72;;;9.33;100.00
51687;BME280;37774;52.192;4.584;2023-04-07T12:08:44;102535.25;;;9.44;100.00
51687;BME280;37774;52.192;4.584;2023-04-07T12:11:30;102502.69;;;9.21;100.00
51687;BME280;37774;52.192;4.584;2023-04-07T12:14:15;102472.66;;;8.96;100.00
51687;BME280;37774;52.192;4.584;2023-04-07T12:17:01;102541.72;;;9.26;100.00
51687;BME280;37774;52.192;4.584;2023-04-07T12:19:46;102142.94;;;6.98;100.00
51687;BME280;37774;52.192;4.584;2023-04-07T12:22:34;102529.13;;;9.06;100.00
51687;BME280;37774;52.192;4.584;2023-04-07T12:25:20;102453.47;;;8.56;100.00
51687;BME280;37774;52.192;4.584;2023-04-07T12:28:05;102406.69;;;8.19;100.00
51687;BME280;37774;52.192;4.584;2023-04-07T12:30:51;102367.25;;;7.97;100.00
51687;BME280;37774;52.192;4.584;2023-04-07T12:33:36;102186.13;;;7.03;100.00
51687;BME280;37774;52.192;4.584;2023-04-07T12:36:21;102552.56;;;9.10;100.00
51687;BME280;37774;52.192;4.584;2023-04-07T12:39:08;102204.91;;;6.97;100.00
51687;BME280;37774;52.192;4.584;2023-04-07T12:41:54;102477.66;;;8.88;100.00
51687;BME280;37774;52.192;4.584;2023-04-07T12:44:41;102182.91;;;7.11;100.00
51687;BME280;37774;52.192;4.584;2023-04-07T12:47:26;102510.97;;;9.06;100.00
51687;BME280;37774;52.192;4.584;2023-04-07T12:50:12;102421.34;;;8.83;100.00
51687;BME280;37774;52.192;4.584;2023-04-07T12:53:22;102107.78;;;7.05;100.00
51687;BME280;37774;52.192;4.584;2023-04-07T12:56:10;102562.88;;;9.42;100.00
51687;BME280;37774;52.192;4.584;2023-04-07T12:58:56;102357.72;;;8.27;100.00
51687;BME280;37774;52.192;4.584;2023-04-07T13:01:41;102152.19;;;6.90;100.00
51687;BME280;37774;52.192;4.584;2023-04-07T13:04:27;102450.28;;;8.66;100.00
51687;BME280;37774;52.192;4.584;2023-04-07T13:07:13;102431.63;;;8.80;100.00
51687;BME280;37774;52.192;4.584;2023-04-07T13:09:59;102402.81;;;8.67;100.00
51687;BME280;37774;52.192;4.584;2023-04-07T13:12:46;102426.81;;;8.94;100.00
51687;BME280;37774;52.192;4.584;2023-04-07T13:15:32;102262.97;;;8.01;100.00
51687;BME280;37774;52.192;4.584;2023-04-07T13:18:17;102470.06;;;9.31;100.00
51687;BME280;37774;52.192;4.584;2023-04-07T13:21:04;102553.19;;;10.09;100.00
51687;BME280;37774;52.192;4.584;2023-04-07T13:23:50;102473.81;;;9.43;100.00
51687;BME280;37774;52.192;4.584;2023-04-07T13:26:35;102254.63;;;8.13;100.00
51687;BME280;37774;52.192;4.584;2023-04-07T13:29:22;102103.50;;;7.39;100.00
51687;BME280;37774;52.192;4.584;2023-04-07T13:32:09;102284.13;;;8.52;100.00
51687;BME280;37774;52.192;4.584;2023-04-07T13:34:56;102532.00;;;9.91;100.00
51687;BME280;37774;52.192;4.584;2023-04-07T13:37:43;102434.25;;;9.15;100.00
51687;BME280;37774;52.192;4.584;2023-04-07T13:40:28;102537.00;;;9.83;100.00
51687;BME280;37774;52.192;4.584;2023-04-07T13:43:13;102459.16;;;9.46;100.00
51687;BME280;37774;52.192;4.584;2023-04-07T13:46:03;102532.09;;;9.96;100.00
51687;BME280;37774;52.192;4.584;2023-04-07T13:48:48;102536.28;;;9.89;100.00
51687;BME280;37774;52.192;4.584;2023-04-07T13:51:34;102487.53;;;9.39;100.00
51687;BME280;37774;52.192;4.584;2023-04-07T13:54:19;102431.66;;;9.16;100.00
51687;BME280;37774;52.192;4.584;2023-04-07T13:57:05;102525.44;;;9.69;100.00
51687;BME280;37774;52.192;4.584;2023-04-07T13:59:52;102372.38;;;8.58;100.00
51687;BME280;37774;52.192;4.584;2023-04-07T14:02:38;102525.06;;;9.53;100.00
51687;BME280;37774;52.192;4.584;2023-04-07T14:05:24;102459.19;;;9.10;100.00
51687;BME280;37774;52.192;4.584;2023-04-07T14:08:09;102523.59;;;9.28;100.00
51687;BME280;37774;52.192;4.584;2023-04-07T14:10:55;102526.09;;;9.23;100.00
51687;BME280;37774;52.192;4.584;2023-04-07T14:13:40;102535.66;;;9.26;100.00
51687;BME280;37774;52.192;4.584;2023-04-07T14:16:26;102493.09;;;8.84;100.00
51687;BME280;37774;52.192;4.584;2023-04-07T14:19:14;102556.16;;;9.16;100.00
51687;BME280;37774;52.192;4.584;2023-04-07T14:21:59;102533.44;;;9.06;100.00
51687;BME280;37774;52.192;4.584;2023-04-07T14:24:45;102520.00;;;8.89;100.00
51687;BME280;37774;52.192;4.584;2023-04-07T14:27:31;102534.09;;;8.99;100.00
51687;BME280;37774;52.192;4.584;2023-04-07T14:30:17;102533.44;;;8.74;100.00
51687;BME280;37774;52.192;4.584;2023-04-07T14:33:03;102573.88;;;8.99;100.00